sensor_id;sensor_type;location;lat;lon;timestamp;P1;durP1;ratioP1;P2;durP2;ratioP2
10947;SDS011;5526;42.070;24.752;2024-01-06T00:01:22;20.60;;;17.45;;
10947;SDS011;5526;42.070;24.752;2024-01-06T00:03:51;19.13;;;15.40;;
10947;SDS011;5526;42.070;24.752;2024-01-06T00:06:18;21.55;;;16.02;;
10947;SDS011;5526;42.070;24.752;2024-01-06T00:08:45;20.20;;;15.82;;
10947;SDS011;5526;42.070;24.752;2024-01-06T00:11:19;23.92;;;18.77;;
10947;SDS011;5526;42.070;24.752;2024-01-06T00:13:46;30.60;;;22.95;;
10947;SDS011;5526;42.070;24.752;2024-01-06T00:16:13;32.92;;;25.50;;
10947;SDS011;5526;42.070;24.752;2024-01-06T00:18:43;27.88;;;23.23;;
10947;SDS011;5526;42.070;24.752;2024-01-06T00:21:12;29.77;;;23.90;;
10947;SDS011;5526;42.070;24.752;2024-01-06T00:23:40;28.58;;;22.67;;
10947;SDS011;5526;42.070;24.752;2024-01-06T00:26:07;26.13;;;22.58;;
10947;SDS011;5526;42.070;24.752;2024-01-06T00:28:34;24.88;;;20.60;;
10947;SDS011;5526;42.070;24.752;2024-01-06T00:31:02;29.77;;;22.17;;
10947;SDS011;5526;42.070;24.752;2024-01-06T00:33:29;28.45;;;22.13;;
10947;SDS011;5526;42.070;24.752;2024-01-06T00:35:56;24.15;;;20.02;;
10947;SDS011;5526;42.070;24.752;2024-01-06T00:38:24;24.58;;;19.38;;
10947;SDS011;5526;42.070;24.752;2024-01-06T00:40:51;29.02;;;21.98;;
10947;SDS011;5526;42.070;24.752;2024-01-06T00:43:19;21.75;;;18.70;;
10947;SDS011;5526;42.070;24.752;2024-01-06T00:45:46;22.05;;;18.20;;
10947;SDS011;5526;42.070;24.752;2024-01-06T00:48:13;23.58;;;19.60;;
10947;SDS011;5526;42.070;24.752;2024-01-06T00:50:40;27.83;;;21.42;;
10947;SDS011;5526;42.070;24.752;2024-01-06T00:53:07;24.77;;;19.50;;
10947;SDS011;5526;42.070;24.752;2024-01-06T00:55:36;22.45;;;17.50;;
10947;SDS011;5526;42.070;24.752;2024-01-06T00:58:03;18.88;;;15.50;;
10947;SDS011;5526;42.070;24.752;2024-01-06T01:00:30;18.77;;;14.52;;
10947;SDS011;5526;42.070;24.752;2024-01-06T01:02:57;16.05;;;13.82;;
10947;SDS011;5526;42.070;24.752;2024-01-06T01:05:24;18.90;;;13.68;;
10947;SDS011;5526;42.070;24.752;2024-01-06T01:07:50;15.02;;;11.80;;
10947;SDS011;5526;42.070;24.752;2024-01-06T01:10:17;13.73;;;10.80;;
10947;SDS011;5526;42.070;24.752;2024-01-06T01:12:46;13.90;;;10.68;;
10947;SDS011;5526;42.070;24.752;2024-01-06T01:15:13;14.82;;;10.40;;
10947;SDS011;5526;42.070;24.752;2024-01-06T01:17:40;12.18;;;10.57;;
10947;SDS011;5526;42.070;24.752;2024-01-06T01:20:08;11.25;;;9.60;;
10947;SDS011;5526;42.070;24.752;2024-01-06T01:22:35;11.70;;;9.45;;
10947;SDS011;5526;42.070;24.752;2024-01-06T01:25:03;12.20;;;10.00;;
10947;SDS011;5526;42.070;24.752;2024-01-06T01:27:32;14.98;;;10.38;;
10947;SDS011;5526;42.070;24.752;2024-01-06T01:30:01;12.85;;;9.50;;
10947;SDS011;5526;42.070;24.752;2024-01-06T01:32:28;10.82;;;8.95;;
10947;SDS011;5526;42.070;24.752;2024-01-06T01:34:55;10.98;;;8.80;;
10947;SDS011;5526;42.070;24.752;2024-01-06T01:37:22;11.52;;;8.70;;
10947;SDS011;5526;42.070;24.752;2024-01-06T01:39:49;11.75;;;8.25;;
10947;SDS011;5526;42.070;24.752;2024-01-06T01:42:16;10.18;;;8.38;;
10947;SDS011;5526;42.070;24.752;2024-01-06T01:44:44;9.90;;;7.97;;
10947;SDS011;5526;42.070;24.752;2024-01-06T01:47:12;12.13;;;9.50;;
10947;SDS011;5526;42.070;24.752;2024-01-06T01:49:43;9.95;;;8.73;;
10947;SDS011;5526;42.070;24.752;2024-01-06T01:52:12;12.25;;;8.38;;
10947;SDS011;5526;42.070;24.752;2024-01-06T01:54:40;10.75;;;8.50;;
10947;SDS011;5526;42.070;24.752;2024-01-06T01:57:07;12.25;;;8.90;;
10947;SDS011;5526;42.070;24.752;2024-01-06T01:59:35;9.50;;;8.45;;
10947;SDS011;5526;42.070;24.752;2024-01-06T02:02:03;11.90;;;9.38;;
10947;SDS011;5526;42.070;24.752;2024-01-06T02:04:32;11.10;;;8.35;;
10947;SDS011;5526;42.070;24.752;2024-01-06T02:06:59;11.13;;;8.63;;
10947;SDS011;5526;42.070;24.752;2024-01-06T02:09:26;11.80;;;9.20;;
10947;SDS011;5526;42.070;24.752;2024-01-06T02:11:56;10.48;;;8.70;;
10947;SDS011;5526;42.070;24.752;2024-01-06T02:14:23;11.68;;;8.52;;
10947;SDS011;5526;42.070;24.752;2024-01-06T02:16:50;9.60;;;8.10;;
10947;SDS011;5526;42.070;24.752;2024-01-06T02:19:17;7.00;;;6.30;;
10947;SDS011;5526;42.070;24.752;2024-01-06T02:21:48;7.05;;;6.15;;
10947;SDS011;5526;42.070;24.752;2024-01-06T02:24:16;8.85;;;7.65;;
10947;SDS011;5526;42.070;24.752;2024-01-06T02:26:43;7.00;;;5.88;;
10947;SDS011;5526;42.070;24.752;2024-01-06T02:29:10;6.93;;;5.93;;
10947;SDS011;5526;42.070;24.752;2024-01-06T02:31:37;6.63;;;5.22;;
10947;SDS011;5526;42.070;24.752;2024-01-06T02:34:04;5.30;;;4.80;;
10947;SDS011;5526;42.070;24.752;2024-01-06T02:36:31;6.75;;;6.10;;
10947;SDS011;5526;42.070;24.752;2024-01-06T02:39:00;6.63;;;5.13;;
10947;SDS011;5526;42.070;24.752;2024-01-06T02:41:27;9.10;;;7.10;;
10947;SDS011;5526;42.070;24.752;2024-01-06T02:43:54;8.20;;;6.93;;
10947;SDS011;5526;42.070;24.752;2024-01-06T02:46:22;8.50;;;6.50;;
10947;SDS011;5526;42.070;24.752;2024-01-06T02:48:49;44.85;;;23.63;;
10947;SDS011;5526;42.070;24.752;2024-01-06T02:51:16;32.60;;;19.23;;
10947;SDS011;5526;42.070;24.752;2024-01-06T02:53:43;27.10;;;17.25;;
10947;SDS011;5526;42.070;24.752;2024-01-06T02:56:11;24.40;;;14.55;;
10947;SDS011;5526;42.070;24.752;2024-01-06T02:58:38;26.08;;;15.25;;
10947;SDS011;5526;42.070;24.752;2024-01-06T03:01:06;21.77;;;14.98;;
10947;SDS011;5526;42.070;24.752;2024-01-06T03:03:33;38.47;;;22.42;;
10947;SDS011;5526;42.070;24.752;2024-01-06T03:06:00;20.73;;;15.10;;
10947;SDS011;5526;42.070;24.752;2024-01-06T03:08:27;17.30;;;11.85;;
10947;SDS011;5526;42.070;24.752;2024-01-06T03:10:54;18.67;;;12.82;;
10947;SDS011;5526;42.070;24.752;2024-01-06T03:13:22;15.35;;;11.95;;
10947;SDS011;5526;42.070;24.752;2024-01-06T03:15:50;17.92;;;14.05;;
10947;SDS011;5526;42.070;24.752;2024-01-06T03:18:16;16.95;;;13.30;;
10947;SDS011;5526;42.070;24.752;2024-01-06T03:20:43;16.25;;;12.75;;
10947;SDS011;5526;42.070;24.752;2024-01-06T03:23:11;16.25;;;13.52;;
10947;SDS011;5526;42.070;24.752;2024-01-06T03:25:38;21.38;;;15.32;;
10947;SDS011;5526;42.070;24.752;2024-01-06T03:28:05;18.75;;;16.75;;
10947;SDS011;5526;42.070;24.752;2024-01-06T03:30:33;18.05;;;14.77;;
10947;SDS011;5526;42.070;24.752;2024-01-06T03:33:01;16.95;;;14.82;;
10947;SDS011;5526;42.070;24.752;2024-01-06T03:35:28;19.23;;;15.02;;
10947;SDS011;5526;42.070;24.752;2024-01-06T03:37:55;18.15;;;14.55;;
10947;SDS011;5526;42.070;24.752;2024-01-06T03:40:22;18.10;;;14.07;;
10947;SDS011;5526;42.070;24.752;2024-01-06T03:42:49;18.15;;;13.73;;
10947;SDS011;5526;42.070;24.752;2024-01-06T03:45:16;16.98;;;14.38;;
10947;SDS011;5526;42.070;24.752;2024-01-06T03:47:45;19.85;;;15.07;;
10947;SDS011;5526;42.070;24.752;2024-01-06T03:50:12;18.13;;;14.30;;
10947;SDS011;5526;42.070;24.752;2024-01-06T03:52:39;16.48;;;14.30;;
10947;SDS011;5526;42.070;24.752;2024-01-06T03:55:06;15.32;;;13.02;;
10947;SDS011;5526;42.070;24.752;2024-01-06T03:57:34;15.05;;;12.73;;
10947;SDS011;5526;42.070;24.752;2024-01-06T04:00:01;12.50;;;11.18;;
10947;SDS011;5526;42.070;24.752;2024-01-06T04:02:28;12.70;;;10.73;;
10947;SDS011;5526;42.070;24.752;2024-01-06T04:04:57;12.38;;;10.45;;
10947;SDS011;5526;42.070;24.752;2024-01-06T04:07:24;13.40;;;10.13;;
10947;SDS011;5526;42.070;24.752;2024-01-06T04:09:51;10.18;;;8.52;;
10947;SDS011;5526;42.070;24.752;2024-01-06T04:12:18;11.73;;;8.88;;
10947;SDS011;5526;42.070;24.752;2024-01-06T04:14:45;10.63;;;8.05;;
10947;SDS011;5526;42.070;24.752;2024-01-06T04:17:12;9.25;;;8.02;;
10947;SDS011;5526;42.070;24.752;2024-01-06T04:19:40;12.15;;;7.57;;
10947;SDS011;5526;42.070;24.752;2024-01-06T04:22:08;9.43;;;8.07;;
10947;SDS011;5526;42.070;24.752;2024-01-06T04:24:35;9.63;;;8.00;;
10947;SDS011;5526;42.070;24.752;2024-01-06T04:27:03;11.63;;;8.07;;
10947;SDS011;5526;42.070;24.752;2024-01-06T04:29:30;9.82;;;8.23;;
10947;SDS011;5526;42.070;24.752;2024-01-06T04:31:57;11.63;;;8.57;;
10947;SDS011;5526;42.070;24.752;2024-01-06T04:34:24;10.85;;;8.35;;
10947;SDS011;5526;42.070;24.752;2024-01-06T04:36:51;9.40;;;8.35;;
10947;SDS011;5526;42.070;24.752;2024-01-06T04:39:20;10.27;;;8.55;;
10947;SDS011;5526;42.070;24.752;2024-01-06T04:41:47;10.18;;;8.18;;
10947;SDS011;5526;42.070;24.752;2024-01-06T04:44:14;11.77;;;8.80;;
10947;SDS011;5526;42.070;24.752;2024-01-06T04:46:41;12.48;;;9.10;;
10947;SDS011;5526;42.070;24.752;2024-01-06T04:49:08;10.13;;;8.68;;
10947;SDS011;5526;42.070;24.752;2024-01-06T04:51:35;12.13;;;8.98;;
10947;SDS011;5526;42.070;24.752;2024-01-06T04:54:02;12.48;;;9.88;;
10947;SDS011;5526;42.070;24.752;2024-01-06T04:56:30;12.00;;;9.45;;
10947;SDS011;5526;42.070;24.752;2024-01-06T04:58:57;19.15;;;11.73;;
10947;SDS011;5526;42.070;24.752;2024-01-06T05:01:24;13.25;;;11.48;;
10947;SDS011;5526;42.070;24.752;2024-01-06T05:03:52;14.50;;;12.73;;
10947;SDS011;5526;42.070;24.752;2024-01-06T05:06:19;15.85;;;12.27;;
10947;SDS011;5526;42.070;24.752;2024-01-06T05:08:46;17.15;;;14.50;;
10947;SDS011;5526;42.070;24.752;2024-01-06T05:11:13;20.60;;;16.70;;
10947;SDS011;5526;42.070;24.752;2024-01-06T05:13:42;18.63;;;15.82;;
10947;SDS011;5526;42.070;24.752;2024-01-06T05:16:09;17.13;;;15.32;;
10947;SDS011;5526;42.070;24.752;2024-01-06T05:18:36;16.27;;;14.60;;
10947;SDS011;5526;42.070;24.752;2024-01-06T05:21:03;18.30;;;15.25;;
10947;SDS011;5526;42.070;24.752;2024-01-06T05:23:30;16.40;;;13.55;;
10947;SDS011;5526;42.070;24.752;2024-01-06T05:25:57;14.85;;;13.15;;
10947;SDS011;5526;42.070;24.752;2024-01-06T05:28:24;17.10;;;13.43;;
10947;SDS011;5526;42.070;24.752;2024-01-06T05:30:53;18.75;;;13.40;;
10947;SDS011;5526;42.070;24.752;2024-01-06T05:33:20;17.25;;;13.05;;
10947;SDS011;5526;42.070;24.752;2024-01-06T05:35:47;16.77;;;12.88;;
10947;SDS011;5526;42.070;24.752;2024-01-06T05:38:14;17.27;;;12.40;;
10947;SDS011;5526;42.070;24.752;2024-01-06T05:40:42;17.80;;;12.88;;
10947;SDS011;5526;42.070;24.752;2024-01-06T05:43:09;15.30;;;12.48;;
10947;SDS011;5526;42.070;24.752;2024-01-06T05:45:36;19.95;;;13.95;;
10947;SDS011;5526;42.070;24.752;2024-01-06T05:48:09;38.92;;;27.67;;
10947;SDS011;5526;42.070;24.752;2024-01-06T05:50:37;25.73;;;18.90;;
10947;SDS011;5526;42.070;24.752;2024-01-06T05:53:04;18.48;;;14.55;;
10947;SDS011;5526;42.070;24.752;2024-01-06T05:55:32;18.98;;;13.88;;
10947;SDS011;5526;42.070;24.752;2024-01-06T05:57:59;18.73;;;13.55;;
10947;SDS011;5526;42.070;24.752;2024-01-06T06:00:26;18.23;;;13.68;;
10947;SDS011;5526;42.070;24.752;2024-01-06T06:02:53;17.70;;;12.27;;
10947;SDS011;5526;42.070;24.752;2024-01-06T06:05:21;15.27;;;12.07;;
10947;SDS011;5526;42.070;24.752;2024-01-06T06:07:48;14.90;;;11.40;;
10947;SDS011;5526;42.070;24.752;2024-01-06T06:10:15;16.50;;;13.43;;
10947;SDS011;5526;42.070;24.752;2024-01-06T06:12:44;14.70;;;12.73;;
10947;SDS011;5526;42.070;24.752;2024-01-06T06:15:11;17.70;;;13.73;;
10947;SDS011;5526;42.070;24.752;2024-01-06T06:17:38;16.23;;;13.38;;
10947;SDS011;5526;42.070;24.752;2024-01-06T06:20:06;18.67;;;16.55;;
10947;SDS011;5526;42.070;24.752;2024-01-06T06:22:35;27.65;;;21.35;;
10947;SDS011;5526;42.070;24.752;2024-01-06T06:25:02;21.67;;;18.40;;
10947;SDS011;5526;42.070;24.752;2024-01-06T06:27:29;16.50;;;14.50;;
10947;SDS011;5526;42.070;24.752;2024-01-06T06:29:57;17.35;;;14.13;;
10947;SDS011;5526;42.070;24.752;2024-01-06T06:32:24;18.30;;;13.48;;
10947;SDS011;5526;42.070;24.752;2024-01-06T06:34:51;15.52;;;13.45;;
10947;SDS011;5526;42.070;24.752;2024-01-06T06:37:21;15.82;;;13.27;;
10947;SDS011;5526;42.070;24.752;2024-01-06T06:39:49;15.27;;;12.32;;
10947;SDS011;5526;42.070;24.752;2024-01-06T06:42:16;12.98;;;11.60;;
10947;SDS011;5526;42.070;24.752;2024-01-06T06:44:43;15.20;;;11.95;;
10947;SDS011;5526;42.070;24.752;2024-01-06T06:47:10;17.67;;;12.60;;
10947;SDS011;5526;42.070;24.752;2024-01-06T06:49:37;16.65;;;13.95;;
10947;SDS011;5526;42.070;24.752;2024-01-06T06:52:05;17.85;;;13.88;;
10947;SDS011;5526;42.070;24.752;2024-01-06T06:54:32;18.02;;;14.10;;
10947;SDS011;5526;42.070;24.752;2024-01-06T06:57:00;18.08;;;14.68;;
10947;SDS011;5526;42.070;24.752;2024-01-06T06:59:28;18.65;;;14.70;;
10947;SDS011;5526;42.070;24.752;2024-01-06T07:01:56;19.58;;;15.27;;
10947;SDS011;5526;42.070;24.752;2024-01-06T07:04:23;18.83;;;15.50;;
10947;SDS011;5526;42.070;24.752;2024-01-06T07:06:51;18.70;;;14.95;;
10947;SDS011;5526;42.070;24.752;2024-01-06T07:09:18;18.27;;;15.77;;
10947;SDS011;5526;42.070;24.752;2024-01-06T07:11:48;21.90;;;15.65;;
10947;SDS011;5526;42.070;24.752;2024-01-06T07:14:17;18.27;;;14.77;;
10947;SDS011;5526;42.070;24.752;2024-01-06T07:16:44;17.52;;;15.38;;
10947;SDS011;5526;42.070;24.752;2024-01-06T07:19:11;21.38;;;16.05;;
10947;SDS011;5526;42.070;24.752;2024-01-06T07:21:38;19.02;;;15.75;;
10947;SDS011;5526;42.070;24.752;2024-01-06T07:24:05;21.23;;;16.77;;
10947;SDS011;5526;42.070;24.752;2024-01-06T07:26:32;22.92;;;17.65;;
10947;SDS011;5526;42.070;24.752;2024-01-06T07:28:59;23.23;;;19.05;;
10947;SDS011;5526;42.070;24.752;2024-01-06T07:31:28;26.13;;;23.10;;
10947;SDS011;5526;42.070;24.752;2024-01-06T07:33:55;32.55;;;26.50;;
10947;SDS011;5526;42.070;24.752;2024-01-06T07:36:22;34.25;;;27.00;;
10947;SDS011;5526;42.070;24.752;2024-01-06T07:38:49;31.92;;;26.42;;
10947;SDS011;5526;42.070;24.752;2024-01-06T07:41:17;31.60;;;25.63;;
10947;SDS011;5526;42.070;24.752;2024-01-06T07:43:44;26.40;;;22.17;;
10947;SDS011;5526;42.070;24.752;2024-01-06T07:46:11;22.42;;;19.88;;
10947;SDS011;5526;42.070;24.752;2024-01-06T07:48:40;24.30;;;18.85;;
10947;SDS011;5526;42.070;24.752;2024-01-06T07:51:07;27.80;;;19.60;;
10947;SDS011;5526;42.070;24.752;2024-01-06T07:53:34;25.08;;;20.75;;
10947;SDS011;5526;42.070;24.752;2024-01-06T07:56:01;22.77;;;19.60;;
10947;SDS011;5526;42.070;24.752;2024-01-06T07:58:28;26.73;;;21.10;;
10947;SDS011;5526;42.070;24.752;2024-01-06T08:00:55;32.08;;;27.85;;
10947;SDS011;5526;42.070;24.752;2024-01-06T08:03:23;28.77;;;23.83;;
10947;SDS011;5526;42.070;24.752;2024-01-06T08:05:51;28.85;;;23.85;;
10947;SDS011;5526;42.070;24.752;2024-01-06T08:08:19;25.23;;;22.52;;
10947;SDS011;5526;42.070;24.752;2024-01-06T08:10:46;25.23;;;22.15;;
10947;SDS011;5526;42.070;24.752;2024-01-06T08:13:14;27.05;;;24.08;;
10947;SDS011;5526;42.070;24.752;2024-01-06T08:15:41;25.00;;;22.10;;
10947;SDS011;5526;42.070;24.752;2024-01-06T08:18:08;26.08;;;22.15;;
10947;SDS011;5526;42.070;24.752;2024-01-06T08:20:35;29.40;;;26.23;;
10947;SDS011;5526;42.070;24.752;2024-01-06T08:23:04;29.02;;;24.65;;
10947;SDS011;5526;42.070;24.752;2024-01-06T08:25:31;32.10;;;25.13;;
10947;SDS011;5526;42.070;24.752;2024-01-06T08:27:58;26.48;;;23.67;;
10947;SDS011;5526;42.070;24.752;2024-01-06T08:30:25;27.73;;;23.80;;
10947;SDS011;5526;42.070;24.752;2024-01-06T08:32:52;23.80;;;20.65;;
10947;SDS011;5526;42.070;24.752;2024-01-06T08:35:19;23.05;;;19.55;;
10947;SDS011;5526;42.070;24.752;2024-01-06T08:37:46;24.35;;;20.40;;
10947;SDS011;5526;42.070;24.752;2024-01-06T08:40:15;23.42;;;20.15;;
10947;SDS011;5526;42.070;24.752;2024-01-06T08:42:42;21.17;;;18.83;;
10947;SDS011;5526;42.070;24.752;2024-01-06T08:45:09;20.85;;;18.75;;
10947;SDS011;5526;42.070;24.752;2024-01-06T08:47:38;21.63;;;18.88;;
10947;SDS011;5526;42.070;24.752;2024-01-06T08:50:05;18.00;;;16.10;;
10947;SDS011;5526;42.070;24.752;2024-01-06T08:52:33;21.17;;;16.88;;
10947;SDS011;5526;42.070;24.752;2024-01-06T08:55:01;21.45;;;19.15;;
10947;SDS011;5526;42.070;24.752;2024-01-06T08:57:29;19.83;;;17.77;;
10947;SDS011;5526;42.070;24.752;2024-01-06T08:59:56;21.20;;;17.98;;
10947;SDS011;5526;42.070;24.752;2024-01-06T09:02:24;20.52;;;18.23;;
10947;SDS011;5526;42.070;24.752;2024-01-06T09:04:51;20.05;;;18.00;;
10947;SDS011;5526;42.070;24.752;2024-01-06T09:07:18;18.48;;;16.67;;
10947;SDS011;5526;42.070;24.752;2024-01-06T09:09:45;20.23;;;17.70;;
10947;SDS011;5526;42.070;24.752;2024-01-06T09:12:12;20.17;;;18.08;;
10947;SDS011;5526;42.070;24.752;2024-01-06T09:14:41;19.02;;;17.20;;
10947;SDS011;5526;42.070;24.752;2024-01-06T09:17:08;21.90;;;19.27;;
10947;SDS011;5526;42.070;24.752;2024-01-06T09:19:35;24.48;;;18.98;;
10947;SDS011;5526;42.070;24.752;2024-01-06T09:22:02;23.55;;;20.80;;
10947;SDS011;5526;42.070;24.752;2024-01-06T09:24:30;23.70;;;21.08;;
10947;SDS011;5526;42.070;24.752;2024-01-06T09:26:58;25.02;;;21.45;;
10947;SDS011;5526;42.070;24.752;2024-01-06T09:29:25;27.20;;;21.27;;
10947;SDS011;5526;42.070;24.752;2024-01-06T09:31:54;24.27;;;21.65;;
10947;SDS011;5526;42.070;24.752;2024-01-06T09:34:21;29.10;;;22.48;;
10947;SDS011;5526;42.070;24.752;2024-01-06T09:36:49;24.25;;;21.75;;
10947;SDS011;5526;42.070;24.752;2024-01-06T09:39:16;25.08;;;20.70;;
10947;SDS011;5526;42.070;24.752;2024-01-06T09:41:43;24.65;;;21.05;;
10947;SDS011;5526;42.070;24.752;2024-01-06T09:44:10;24.20;;;20.85;;
10947;SDS011;5526;42.070;24.752;2024-01-06T09:46:38;26.05;;;22.27;;
10947;SDS011;5526;42.070;24.752;2024-01-06T09:49:07;26.80;;;23.77;;
10947;SDS011;5526;42.070;24.752;2024-01-06T09:51:35;29.95;;;26.38;;
10947;SDS011;5526;42.070;24.752;2024-01-06T09:54:04;31.73;;;27.60;;
10947;SDS011;5526;42.070;24.752;2024-01-06T09:56:35;33.08;;;28.58;;
10947;SDS011;5526;42.070;24.752;2024-01-06T09:59:02;32.70;;;28.13;;
10947;SDS011;5526;42.070;24.752;2024-01-06T10:01:29;33.75;;;28.27;;
10947;SDS011;5526;42.070;24.752;2024-01-06T10:03:56;32.70;;;29.35;;
10947;SDS011;5526;42.070;24.752;2024-01-06T10:06:25;29.10;;;25.90;;
10947;SDS011;5526;42.070;24.752;2024-01-06T10:08:52;30.05;;;26.67;;
10947;SDS011;5526;42.070;24.752;2024-01-06T10:11:20;31.35;;;26.77;;
10947;SDS011;5526;42.070;24.752;2024-01-06T10:13:49;35.17;;;27.42;;
10947;SDS011;5526;42.070;24.752;2024-01-06T10:16:16;36.47;;;27.77;;
10947;SDS011;5526;42.070;24.752;2024-01-06T10:18:44;33.17;;;27.38;;
10947;SDS011;5526;42.070;24.752;2024-01-06T10:21:11;28.60;;;25.58;;
10947;SDS011;5526;42.070;24.752;2024-01-06T10:23:40;25.25;;;22.55;;
10947;SDS011;5526;42.070;24.752;2024-01-06T10:26:08;25.88;;;23.05;;
10947;SDS011;5526;42.070;24.752;2024-01-06T10:28:39;20.65;;;17.70;;
10947;SDS011;5526;42.070;24.752;2024-01-06T10:31:07;21.65;;;18.05;;
10947;SDS011;5526;42.070;24.752;2024-01-06T10:33:35;20.77;;;17.98;;
10947;SDS011;5526;42.070;24.752;2024-01-06T10:36:02;23.10;;;18.35;;
10947;SDS011;5526;42.070;24.752;2024-01-06T10:38:30;20.05;;;16.25;;
10947;SDS011;5526;42.070;24.752;2024-01-06T10:41:01;21.83;;;16.63;;
10947;SDS011;5526;42.070;24.752;2024-01-06T10:43:32;19.33;;;17.20;;
10947;SDS011;5526;42.070;24.752;2024-01-06T10:46:03;18.88;;;16.35;;
10947;SDS011;5526;42.070;24.752;2024-01-06T10:48:31;19.52;;;16.20;;
10947;SDS011;5526;42.070;24.752;2024-01-06T10:50:59;20.13;;;17.02;;
10947;SDS011;5526;42.070;24.752;2024-01-06T10:53:27;21.40;;;17.02;;
10947;SDS011;5526;42.070;24.752;2024-01-06T10:55:55;21.83;;;17.80;;
10947;SDS011;5526;42.070;24.752;2024-01-06T10:58:25;19.33;;;17.23;;
10947;SDS011;5526;42.070;24.752;2024-01-06T11:00:54;19.77;;;16.88;;
10947;SDS011;5526;42.070;24.752;2024-01-06T11:03:22;21.77;;;17.10;;
10947;SDS011;5526;42.070;24.752;2024-01-06T11:05:51;23.45;;;17.88;;
10947;SDS011;5526;42.070;24.752;2024-01-06T11:08:18;23.25;;;18.23;;
10947;SDS011;5526;42.070;24.752;2024-01-06T11:10:45;22.73;;;16.77;;
10947;SDS011;5526;42.070;24.752;2024-01-06T11:13:14;20.38;;;16.48;;
10947;SDS011;5526;42.070;24.752;2024-01-06T11:15:49;19.13;;;15.48;;
10947;SDS011;5526;42.070;24.752;2024-01-06T11:18:30;13.20;;;9.38;;
10947;SDS011;5526;42.070;24.752;2024-01-06T11:21:19;9.43;;;8.00;;
10947;SDS011;5526;42.070;24.752;2024-01-06T11:26:42;17.88;;;13.55;;
10947;SDS011;5526;42.070;24.752;2024-01-06T11:29:10;18.92;;;13.80;;
10947;SDS011;5526;42.070;24.752;2024-01-06T11:31:39;18.45;;;15.02;;
10947;SDS011;5526;42.070;24.752;2024-01-06T11:34:12;20.75;;;16.13;;
10947;SDS011;5526;42.070;24.752;2024-01-06T11:36:42;21.45;;;17.83;;
10947;SDS011;5526;42.070;24.752;2024-01-06T11:42:02;19.52;;;15.10;;
10947;SDS011;5526;42.070;24.752;2024-01-06T11:44:29;20.33;;;15.73;;
10947;SDS011;5526;42.070;24.752;2024-01-06T11:47:01;21.52;;;16.30;;
10947;SDS011;5526;42.070;24.752;2024-01-06T11:49:30;21.65;;;16.50;;
10947;SDS011;5526;42.070;24.752;2024-01-06T11:51:58;19.17;;;16.38;;
10947;SDS011;5526;42.070;24.752;2024-01-06T11:54:27;19.58;;;15.98;;
10947;SDS011;5526;42.070;24.752;2024-01-06T11:56:55;21.63;;;15.43;;
10947;SDS011;5526;42.070;24.752;2024-01-06T11:59:22;30.70;;;18.00;;
10947;SDS011;5526;42.070;24.752;2024-01-06T12:01:50;18.05;;;13.45;;
10947;SDS011;5526;42.070;24.752;2024-01-06T12:04:19;16.08;;;12.65;;
10947;SDS011;5526;42.070;24.752;2024-01-06T12:06:47;13.32;;;10.02;;
10947;SDS011;5526;42.070;24.752;2024-01-06T12:09:14;14.73;;;10.52;;
10947;SDS011;5526;42.070;24.752;2024-01-06T12:11:44;11.18;;;9.95;;
10947;SDS011;5526;42.070;24.752;2024-01-06T12:14:12;12.88;;;11.20;;
10947;SDS011;5526;42.070;24.752;2024-01-06T12:16:39;10.82;;;9.48;;
10947;SDS011;5526;42.070;24.752;2024-01-06T12:19:06;11.30;;;9.65;;
10947;SDS011;5526;42.070;24.752;2024-01-06T12:21:35;9.32;;;8.40;;
10947;SDS011;5526;42.070;24.752;2024-01-06T12:24:12;10.95;;;8.43;;
10947;SDS011;5526;42.070;24.752;2024-01-06T12:26:42;7.75;;;6.93;;
10947;SDS011;5526;42.070;24.752;2024-01-06T12:29:09;7.45;;;6.55;;
10947;SDS011;5526;42.070;24.752;2024-01-06T12:31:37;9.05;;;7.13;;
10947;SDS011;5526;42.070;24.752;2024-01-06T12:34:05;8.40;;;7.47;;
10947;SDS011;5526;42.070;24.752;2024-01-06T12:36:34;9.82;;;7.38;;
10947;SDS011;5526;42.070;24.752;2024-01-06T12:39:02;10.77;;;8.40;;
10947;SDS011;5526;42.070;24.752;2024-01-06T12:41:30;11.80;;;8.18;;
10947;SDS011;5526;42.070;24.752;2024-01-06T12:43:58;13.02;;;9.57;;
10947;SDS011;5526;42.070;24.752;2024-01-06T12:46:27;10.05;;;8.90;;
10947;SDS011;5526;42.070;24.752;2024-01-06T12:48:54;11.57;;;8.85;;
10947;SDS011;5526;42.070;24.752;2024-01-06T12:51:21;11.82;;;8.85;;
10947;SDS011;5526;42.070;24.752;2024-01-06T12:53:50;13.30;;;9.32;;
10947;SDS011;5526;42.070;24.752;2024-01-06T12:56:17;9.52;;;8.52;;
10947;SDS011;5526;42.070;24.752;2024-01-06T12:58:45;13.10;;;8.48;;
10947;SDS011;5526;42.070;24.752;2024-01-06T13:01:12;10.52;;;8.43;;
10947;SDS011;5526;42.070;24.752;2024-01-06T13:03:39;9.65;;;8.65;;
10947;SDS011;5526;42.070;24.752;2024-01-06T13:06:06;9.70;;;8.07;;
10947;SDS011;5526;42.070;24.752;2024-01-06T13:08:34;15.10;;;9.20;;
10947;SDS011;5526;42.070;24.752;2024-01-06T13:11:03;10.82;;;9.15;;
10947;SDS011;5526;42.070;24.752;2024-01-06T13:13:30;13.15;;;9.02;;
10947;SDS011;5526;42.070;24.752;2024-01-06T13:15:57;10.32;;;9.05;;
10947;SDS011;5526;42.070;24.752;2024-01-06T13:18:25;10.88;;;8.93;;
10947;SDS011;5526;42.070;24.752;2024-01-06T13:20:53;12.13;;;9.40;;
10947;SDS011;5526;42.070;24.752;2024-01-06T13:23:20;11.25;;;9.35;;
10947;SDS011;5526;42.070;24.752;2024-01-06T13:25:47;10.70;;;9.15;;
10947;SDS011;5526;42.070;24.752;2024-01-06T13:28:16;12.93;;;9.90;;
10947;SDS011;5526;42.070;24.752;2024-01-06T13:30:43;17.20;;;11.40;;
10947;SDS011;5526;42.070;24.752;2024-01-06T13:33:11;13.38;;;10.77;;
10947;SDS011;5526;42.070;24.752;2024-01-06T13:35:39;15.18;;;10.93;;
10947;SDS011;5526;42.070;24.752;2024-01-06T13:38:06;13.27;;;9.93;;
10947;SDS011;5526;42.070;24.752;2024-01-06T13:40:34;10.60;;;9.05;;
10947;SDS011;5526;42.070;24.752;2024-01-06T13:43:01;12.75;;;9.57;;
10947;SDS011;5526;42.070;24.752;2024-01-06T13:45:31;10.57;;;8.10;;
10947;SDS011;5526;42.070;24.752;2024-01-06T13:47:58;10.23;;;8.75;;
10947;SDS011;5526;42.070;24.752;2024-01-06T13:50:26;9.20;;;8.30;;
10947;SDS011;5526;42.070;24.752;2024-01-06T13:52:53;9.90;;;8.38;;
10947;SDS011;5526;42.070;24.752;2024-01-06T13:55:20;10.13;;;9.10;;
10947;SDS011;5526;42.070;24.752;2024-01-06T13:57:48;8.98;;;8.07;;
10947;SDS011;5526;42.070;24.752;2024-01-06T14:00:16;15.05;;;8.20;;
10947;SDS011;5526;42.070;24.752;2024-01-06T14:02:46;13.82;;;8.65;;
10947;SDS011;5526;42.070;24.752;2024-01-06T14:05:13;9.88;;;8.88;;
10947;SDS011;5526;42.070;24.752;2024-01-06T14:07:40;10.82;;;8.98;;
10947;SDS011;5526;42.070;24.752;2024-01-06T14:10:10;12.38;;;8.98;;
10947;SDS011;5526;42.070;24.752;2024-01-06T14:12:39;13.45;;;8.55;;
10947;SDS011;5526;42.070;24.752;2024-01-06T14:15:07;10.75;;;8.65;;
10947;SDS011;5526;42.070;24.752;2024-01-06T14:17:35;13.65;;;9.02;;
10947;SDS011;5526;42.070;24.752;2024-01-06T14:20:04;10.48;;;8.68;;
10947;SDS011;5526;42.070;24.752;2024-01-06T14:22:34;9.57;;;8.50;;
10947;SDS011;5526;42.070;24.752;2024-01-06T14:25:02;10.30;;;8.77;;
10947;SDS011;5526;42.070;24.752;2024-01-06T14:27:31;11.57;;;8.85;;
10947;SDS011;5526;42.070;24.752;2024-01-06T14:29:59;9.85;;;8.75;;
10947;SDS011;5526;42.070;24.752;2024-01-06T14:32:26;10.90;;;9.75;;
10947;SDS011;5526;42.070;24.752;2024-01-06T14:34:54;11.52;;;9.68;;